Bei Facebook empfehlenBei Twitter postenGoogle plusPinterest

Das Wetter im Erzgebirge am 15.03.2016

Wetter und Klima am 15.03.2016 Holzhau im Erzgebirge (630m ü.NN)
Letzte gemessene Temperatur und Uhrzeit der Messung23:45:00 Uhr-1.30 °C
Temperatur (Maximum / Höchstwert) und Uhrzeit der Messung14:15:00 Uhr3.00 °C
Temperatur (Minimum / Tiefstwert) und Uhrzeit der Messung23:00:00-1.40 °C
Errechneter Absolutwert der Temperaturschwankungen zwischen Tmin und Tmax des Tages4.40 K
Errechnete Tagesmitteltemperatur0.07917 °C
Gesamt - Niederschlag des Tages (in flüssiger Form)2.08 Liter / m²
Luftdruck (Maximum / Höchstwert) und Zeitpunkt der Messung00:00:00 Uhr1021.20 hPa
Luftdruck (Minimum / Tiefstwert) und Zeitpunkt der Messung07:45:00 Uhr1017.10 hPa
Errechneter Absolutwert der Luftdruckschwankungen des Tages4.10 hPa
Höchste gemessene Windgeschwindigkeit und Uhrzeit der Messung18:15:00 Uhr183.60 km/h
Errechnete Windhäufigkeit in Relation zu den Messwerten des Tages7.29167 %
Niedrigste Windkühle (Windchill) und Zeitpunkt der Messung18:15:00 Uhr-13.80 °C
Taupunkt (Maximum / Höchstwert) und Uhrzeit der Messung14:15:00 Uhr1.10 °C
Taupunkt (Minimum / Tiefstwert) und Uhrzeit der Messung23:00:00-2.80 °C
Anzahl der automatisch eingelesenen Messwerte 96

Detaillierte Wetter- und Klima- Messwerte für den 15.03.2016 in Holzhau im Erzgebirge (630m ü.NN)
ZeitTemperaturLuftdruckRel. LuftfeuchteWindWindrichtungWindchillTaupunktNiederschlag l/m²
23:45:00-1.30 °C1020.90 hPa91.00 %-2.70 °C2.08
23:30:00-1.30 °C1020.90 hPa91.00 %-2.70 °C2.08
23:15:00-1.30 °C1020.60 hPa91.00 %-2.70 °C2.08
23:00:00-1.40 °C1020.50 hPa91.00 %-2.80 °C2.08
22:45:00-1.40 °C1020.50 hPa91.00 %-2.80 °C2.08
22:30:00-1.20 °C1020.20 hPa91.00 %-2.60 °C2.08
22:15:00-1.10 °C1020.30 hPa91.00 %-2.50 °C2.08
22:00:00-1.10 °C1020.20 hPa91.00 %-2.50 °C2.08
21:45:00-1.00 °C1020.30 hPa91.00 %-2.40 °C2.08
21:30:00-0.80 °C1020.00 hPa91.00 %-2.20 °C2.08
21:15:00-0.60 °C1019.70 hPa91.00 %-2.00 °C2.08
21:00:00-0.50 °C1019.80 hPa91.00 %-1.90 °C2.08
20:45:00-0.50 °C1019.80 hPa91.00 %-1.90 °C2.08
20:30:00-0.50 °C1019.70 hPa91.00 %-1.90 °C2.08
20:15:00-0.50 °C1019.70 hPa91.00 %-1.90 °C2.08
20:00:00-0.50 °C1019.60 hPa90.00 %-2.10 °C2.08
19:45:00-0.50 °C1019.70 hPa90.00 %-2.10 °C2.08
19:30:00-0.50 °C1019.60 hPa90.00 %-2.10 °C2.08
19:15:00-0.60 °C1019.50 hPa90.00 %2.16 km/hONO-0.60 °C-2.20 °C2.08
19:00:00-0.50 °C1019.40 hPa90.00 %5.40 km/hONO-2.30 °C-2.10 °C2.08
18:45:00-0.50 °C1019.20 hPa90.00 %-2.10 °C2.08
18:30:00-0.50 °C1019.00 hPa90.00 %-2.10 °C2.08
18:15:00-0.50 °C1018.80 hPa89.00 %183.60 km/hONO-13.80 °C-2.30 °C2.08
18:00:00-0.50 °C1018.90 hPa89.00 %-2.30 °C2.08
17:45:00-0.50 °C1018.80 hPa89.00 %-2.30 °C2.08
17:30:00-0.40 °C1018.80 hPa89.00 %4.32 km/hONO-0.40 °C-2.20 °C2.08
17:15:00-0.20 °C1018.70 hPa88.00 %-2.10 °C2.08
17:00:00-0.10 °C1018.40 hPa88.00 %-2.00 °C2.08
16:45:000.10 °C1018.60 hPa88.00 %-1.60 °C1.56
16:30:000.10 °C1018.50 hPa88.00 %-1.60 °C1.56
16:15:000.30 °C1018.40 hPa87.00 %-1.60 °C1.56
16:00:000.60 °C1018.60 hPa87.00 %-1.30 °C1.56
15:45:000.90 °C1018.60 hPa87.00 %-1.00 °C1.56
15:30:000.90 °C1018.40 hPa87.00 %-1.00 °C1.56
15:15:001.10 °C1018.40 hPa86.00 %-1.00 °C1.56
15:00:001.30 °C1018.10 hPa86.00 %-0.80 °C1.04
14:45:001.80 °C1018.30 hPa86.00 %-0.30 °C1.04
14:30:002.50 °C1018.20 hPa86.00 %0.40 °C0.52
14:15:003.00 °C1018.20 hPa87.00 %1.10 °C 
14:00:002.80 °C1018.20 hPa87.00 %0.90 °C 
13:45:002.20 °C1018.30 hPa88.00 %0.40 °C 
13:30:002.10 °C1018.00 hPa88.00 %0.30 °C 
13:15:002.30 °C1018.00 hPa88.00 %1.80 km/hSO2.30 °C0.50 °C 
13:00:002.40 °C1018.30 hPa88.00 %5.76 km/hSO0.80 °C0.60 °C 
12:45:002.10 °C1018.40 hPa88.00 %0.30 °C 
12:30:002.40 °C1017.90 hPa89.00 %0.80 °C 
12:15:002.20 °C1018.00 hPa90.00 %0.70 °C 
12:00:002.20 °C1018.00 hPa90.00 %0.70 °C 
11:45:001.80 °C1018.10 hPa91.00 %0.50 °C 
11:30:001.90 °C1018.10 hPa91.00 %0.60 °C 
11:15:002.20 °C1018.00 hPa92.00 %1.00 °C 
11:00:001.50 °C1017.80 hPa93.00 %0.50 °C 
10:45:001.50 °C1017.70 hPa93.00 %0.50 °C 
10:30:000.60 °C1017.80 hPa93.00 %-0.40 °C 
10:15:000.40 °C1017.60 hPa93.00 %-0.60 °C 
10:00:000.10 °C1017.60 hPa93.00 %-0.90 °C 
09:45:000.10 °C1017.50 hPa93.00 %-0.90 °C 
09:30:000.20 °C1017.70 hPa93.00 %-0.80 °C 
09:15:000.20 °C1017.80 hPa93.00 %-0.80 °C 
09:00:000.20 °C1017.60 hPa93.00 %-0.80 °C 
08:45:000.30 °C1017.40 hPa93.00 %-0.70 °C 
08:30:000.10 °C1017.50 hPa93.00 %-0.90 °C 
08:15:00-0.10 °C1017.50 hPa93.00 %-1.20 °C 
08:00:00-0.50 °C1017.30 hPa93.00 %-1.60 °C 
07:45:00-0.70 °C1017.10 hPa93.00 %-1.80 °C 
07:30:00-0.70 °C1017.30 hPa93.00 %-1.80 °C 
07:15:00-0.70 °C1017.30 hPa93.00 %-1.80 °C 
07:00:00-0.70 °C1017.60 hPa93.00 %-1.80 °C 
06:45:00-0.70 °C1017.50 hPa93.00 %-1.80 °C 
06:30:00-0.60 °C1017.30 hPa93.00 %-1.70 °C 
06:15:00-0.60 °C1017.40 hPa92.00 %-1.90 °C 
06:00:00-0.50 °C1017.50 hPa92.00 %-1.80 °C 
05:45:00-0.50 °C1017.60 hPa92.00 %-1.80 °C 
05:30:00-0.50 °C1017.50 hPa92.00 %-1.80 °C 
05:15:00-0.40 °C1017.60 hPa92.00 %-1.70 °C 
05:00:00-0.40 °C1017.70 hPa92.00 %-1.70 °C 
04:45:00-0.40 °C1017.80 hPa92.00 %-1.70 °C 
04:30:00-0.40 °C1017.90 hPa91.00 %-1.80 °C 
04:15:00-0.40 °C1018.30 hPa91.00 %-1.80 °C 
04:00:00-0.40 °C1018.30 hPa91.00 %-1.80 °C 
03:45:00-0.40 °C1018.40 hPa91.00 %-1.80 °C 
03:30:00-0.40 °C1018.50 hPa91.00 %-1.80 °C 
03:15:00-0.40 °C1018.50 hPa90.00 %-2.00 °C 
03:00:00-0.40 °C1018.70 hPa90.00 %-2.00 °C 
02:45:00-0.40 °C1018.90 hPa90.00 %-2.00 °C 
02:30:00-0.40 °C1019.40 hPa90.00 %-2.00 °C 
02:15:00-0.40 °C1019.60 hPa90.00 %-2.00 °C 
02:00:00-0.30 °C1019.90 hPa90.00 %-1.90 °C 
01:45:00-0.30 °C1020.00 hPa90.00 %-1.90 °C 
01:30:00-0.40 °C1020.10 hPa90.00 %-2.00 °C 
01:15:00-0.40 °C1020.20 hPa90.00 %-2.00 °C 
01:00:00-0.50 °C1020.40 hPa90.00 %-2.10 °C 
00:45:00-0.60 °C1020.40 hPa90.00 %4.68 km/hWNW-0.60 °C-2.20 °C 
00:30:00-0.60 °C1020.60 hPa90.00 %-2.20 °C 
00:15:00-0.70 °C1020.80 hPa89.00 %-2.50 °C 
00:00:00-0.70 °C1021.20 hPa89.00 %-2.50 °C 

Permanenter Link zu dieser Seite: Wetter im Erzgebirge am 15.03.2016
Performance-Info: Die Erstellung der Seite / Statistik(en) / Tabelle(n) erforderte 5 Datenbankserver-Abfrage(n) und dauerte 123 Millisekunden. (Dieser Messwert ist von der Gesamt-Auslastung des Servers abhängig.)
Erzgebirge - Wetter | Erzgebirge - Wetter (Mobilgeräte) | Komplette Klimadatenbank